createdAt,value
2022-10-02T00:01:58.113Z,100808.09
2022-10-02T00:04:48.699Z,100814.34
2022-10-02T00:07:18.493Z,100804.72
2022-10-02T00:09:51.264Z,100815.94
2022-10-02T00:12:23.986Z,100804.25
2022-10-02T00:14:57.749Z,100797.03
2022-10-02T00:17:32.752Z,100800.41
2022-10-02T00:20:00.921Z,100801.38
2022-10-02T00:22:44.960Z,100797.81
2022-10-02T00:25:29.094Z,100803.56
2022-10-02T00:28:17.787Z,100803.81
2022-10-02T00:31:15.626Z,100813.31
2022-10-02T00:33:53.951Z,100802.28
2022-10-02T00:36:24.250Z,100803.88
2022-10-02T00:39:16.007Z,100803.47
2022-10-02T00:41:43.410Z,100811.75
2022-10-02T00:44:47.857Z,100808.88
2022-10-02T00:47:20.959Z,100803.97
2022-10-02T00:50:03.892Z,100804.44
2022-10-02T00:52:47.595Z,100802.47
2022-10-02T00:55:52.506Z,100808.59
2022-10-02T00:58:47.564Z,100801.63
2022-10-02T01:01:19.782Z,100797.03
2022-10-02T01:03:56.438Z,100805.56
2022-10-02T01:06:27.465Z,100802.91
2022-10-02T01:08:55.903Z,100807.00
2022-10-02T01:11:26.251Z,100812.31
2022-10-02T01:13:54.420Z,100812.09
2022-10-02T01:16:22.289Z,100811.09
2022-10-02T01:18:51.209Z,100807.00
2022-10-02T01:21:49.411Z,100802.28
2022-10-02T01:24:27.427Z,100803.16
2022-10-02T01:26:55.166Z,100808.22
2022-10-02T01:29:22.835Z,100802.78
2022-10-02T01:31:50.526Z,100801.69
2022-10-02T01:34:18.392Z,100800.09
2022-10-02T01:36:45.978Z,100800.59
2022-10-02T01:39:13.641Z,100804.50
2022-10-02T01:41:44.532Z,100804.00
2022-10-02T01:44:13.921Z,100809.88
2022-10-02T01:46:57.777Z,100804.59
2022-10-02T01:49:34.052Z,100805.50
2022-10-02T01:52:01.532Z,100807.06
2022-10-02T01:55:13.776Z,100801.50
2022-10-02T01:57:44.059Z,100807.44
2022-10-02T02:00:23.031Z,100804.56
2022-10-02T02:03:20.959Z,100806.25
2022-10-02T02:06:08.443Z,100801.28
2022-10-02T02:09:00.929Z,100795.25
2022-10-02T02:11:30.382Z,100799.72
2022-10-02T02:14:17.624Z,100799.34
2022-10-02T02:16:49.378Z,100796.59
2022-10-02T02:19:26.015Z,100792.81
2022-10-02T02:22:01.769Z,100796.94
2022-10-02T02:24:44.443Z,100797.22
2022-10-02T02:27:17.902Z,100805.09
2022-10-02T02:29:50.918Z,100794.13
2022-10-02T02:32:24.498Z,100807.13
2022-10-02T02:35:04.388Z,100801.94
2022-10-02T02:37:35.461Z,100803.31
2022-10-02T02:40:12.407Z,100799.63
2022-10-02T02:42:46.210Z,100795.41
2022-10-02T02:45:23.425Z,100804.28
2022-10-02T02:47:55.141Z,100800.47
2022-10-02T02:50:29.419Z,100803.44
2022-10-02T02:53:13.400Z,100797.84
2022-10-02T02:55:51.325Z,100795.50
2022-10-02T02:58:33.578Z,100807.03
2022-10-02T03:01:01.232Z,100800.16
2022-10-02T03:03:28.842Z,100800.97
2022-10-02T03:06:22.566Z,100789.44
2022-10-02T03:08:52.779Z,100794.63
2022-10-02T03:12:05.241Z,100796.66
2022-10-02T03:15:00.249Z,100790.53
2022-10-02T03:17:52.979Z,100787.88
2022-10-02T03:20:41.814Z,100794.88
2022-10-02T03:23:17.234Z,100790.84
2022-10-02T03:25:53.955Z,100792.00
2022-10-02T03:28:53.609Z,100787.34
2022-10-02T03:31:20.102Z,100789.91
2022-10-02T03:33:47.601Z,100788.09
2022-10-02T03:36:18.155Z,100785.06
2022-10-02T03:38:56.926Z,100794.34
2022-10-02T03:41:34.200Z,100795.28
2022-10-02T03:44:02.054Z,100789.03
2022-10-02T03:46:29.594Z,100796.13
2022-10-02T03:48:57.378Z,100799.84
2022-10-02T03:51:25.154Z,100798.06
2022-10-02T03:53:52.956Z,100805.16
2022-10-02T03:56:56.847Z,100801.88
2022-10-02T03:59:45.741Z,100803.78
2022-10-02T04:02:26.639Z,100805.38
2022-10-02T04:05:05.510Z,100810.13
2022-10-02T04:07:36.346Z,100803.91
2022-10-02T04:10:19.827Z,100801.38
2022-10-02T04:12:55.284Z,100805.19
2022-10-02T04:15:58.217Z,100801.59
2022-10-02T04:18:36.378Z,100800.53
2022-10-02T04:21:34.422Z,100800.31
2022-10-02T04:24:16.269Z,100812.59
2022-10-02T04:26:59.096Z,100803.91
2022-10-02T04:29:32.192Z,100808.69
2022-10-02T04:32:17.536Z,100804.13
2022-10-02T04:34:45.137Z,100800.00
2022-10-02T04:37:34.748Z,100807.84
2022-10-02T04:40:33.014Z,100800.31
2022-10-02T04:43:34.540Z,100806.97
2022-10-02T04:46:26.236Z,100807.06
2022-10-02T04:48:56.547Z,100807.06
2022-10-02T04:51:32.668Z,100809.31
2022-10-02T04:54:21.761Z,100804.34
2022-10-02T04:57:35.464Z,100814.06
2022-10-02T05:00:11.074Z,100815.38
2022-10-02T05:02:44.142Z,100819.91
2022-10-02T05:05:29.585Z,100816.09
2022-10-02T05:08:15.524Z,100815.88
2022-10-02T05:11:04.374Z,100816.84
2022-10-02T05:13:31.949Z,100808.59
2022-10-02T05:16:49.886Z,100818.00
2022-10-02T05:19:23.382Z,100814.91
2022-10-02T05:22:24.473Z,100812.50
2022-10-02T05:25:10.050Z,100818.00
2022-10-02T05:28:01.608Z,100809.72
2022-10-02T05:30:39.294Z,100812.38
2022-10-02T05:33:12.747Z,100811.44
2022-10-02T05:35:54.887Z,100818.22
2022-10-02T05:38:36.209Z,100822.03
2022-10-02T05:41:23.470Z,100811.66
2022-10-02T05:44:21.573Z,100809.94
2022-10-02T05:47:11.660Z,100817.88
2022-10-02T05:49:44.830Z,100809.72
2022-10-02T05:52:24.874Z,100813.13
2022-10-02T05:55:17.182Z,100815.22
2022-10-02T05:57:54.038Z,100815.66
2022-10-02T06:00:24.678Z,100819.38
2022-10-02T06:03:13.825Z,100814.06
2022-10-02T06:05:48.365Z,100809.72
2022-10-02T06:08:21.660Z,100810.75
2022-10-02T06:10:54.254Z,100815.09
2022-10-02T06:13:53.004Z,100808.25
2022-10-02T06:16:32.715Z,100808.16
2022-10-02T06:19:07.964Z,100818.28
2022-10-02T06:21:48.275Z,100815.66
2022-10-02T06:24:31.182Z,100802.19
2022-10-02T06:27:04.623Z,100811.50
2022-10-02T06:29:44.383Z,100809.41
2022-10-02T06:32:22.502Z,100811.19
2022-10-02T06:34:50.754Z,100812.78
2022-10-02T06:37:36.733Z,100812.78
2022-10-02T06:40:04.422Z,100819.31
2022-10-02T06:42:52.842Z,100817.22
2022-10-02T06:45:30.053Z,100811.28
2022-10-02T06:48:25.724Z,100814.88
2022-10-02T06:50:53.131Z,100819.00
2022-10-02T06:53:26.404Z,100819.91
2022-10-02T06:56:12.187Z,100821.81
2022-10-02T06:58:45.536Z,100822.56
2022-10-02T07:01:22.720Z,100819.63
2022-10-02T07:04:27.262Z,100826.34
2022-10-02T07:07:19.466Z,100824.81
2022-10-02T07:09:49.642Z,100816.63
2022-10-02T07:12:47.327Z,100818.72
2022-10-02T07:15:35.780Z,100822.69
2022-10-02T07:18:08.984Z,100819.47
2022-10-02T07:20:55.226Z,100818.91
2022-10-02T07:23:43.056Z,100821.16
2022-10-02T07:26:44.103Z,100825.59
2022-10-02T07:29:35.777Z,100818.22
2022-10-02T07:32:12.247Z,100819.84
2022-10-02T07:35:01.100Z,100823.94
2022-10-02T07:37:54.829Z,100823.81
2022-10-02T07:40:35.103Z,100822.06
2022-10-02T07:43:08.625Z,100815.63
2022-10-02T07:46:09.846Z,100814.78
2022-10-02T07:48:39.971Z,100815.16
2022-10-02T07:51:50.225Z,100813.25
2022-10-02T07:54:54.839Z,100814.22
2022-10-02T07:57:28.225Z,100820.75
2022-10-02T08:00:02.857Z,100815.31
2022-10-02T08:02:43.217Z,100822.53
2022-10-02T08:05:23.943Z,100820.50
2022-10-02T08:07:57.563Z,100821.31
2022-10-02T08:10:28.449Z,100818.78
2022-10-02T08:13:08.233Z,100822.56
2022-10-02T08:15:38.659Z,100818.47
2022-10-02T08:18:35.719Z,100813.97
2022-10-02T08:21:09.850Z,100816.75
2022-10-02T08:23:45.321Z,100807.84
2022-10-02T08:26:21.861Z,100804.94
2022-10-02T08:29:05.990Z,100805.44
2022-10-02T08:31:33.823Z,100809.03
2022-10-02T08:34:13.091Z,100809.00
2022-10-02T08:36:44.294Z,100802.13
2022-10-02T08:39:35.531Z,100805.31
2022-10-02T08:42:09.996Z,100806.53
2022-10-02T08:45:02.394Z,100810.03
2022-10-02T08:48:23.393Z,100811.81
2022-10-02T08:51:09.745Z,100802.13
2022-10-02T08:54:15.569Z,100797.81
2022-10-02T08:56:58.638Z,100804.09
2022-10-02T08:59:31.771Z,100797.94
2022-10-02T09:02:02.306Z,100808.34
2022-10-02T09:04:40.606Z,100805.47
2022-10-02T09:07:52.653Z,100809.78
2022-10-02T09:10:22.843Z,100806.34
2022-10-02T09:13:27.584Z,100807.66
2022-10-02T09:16:11.720Z,100809.50
2022-10-02T09:19:00.094Z,100809.06
2022-10-02T09:21:50.272Z,100809.53
2022-10-02T09:24:43.512Z,100809.44
2022-10-02T09:27:29.498Z,100810.53
2022-10-02T09:30:15.917Z,100805.16
2022-10-02T09:33:16.197Z,100799.13
2022-10-02T09:35:49.655Z,100796.94
2022-10-02T09:38:29.585Z,100804.28
2022-10-02T09:41:10.731Z,100802.94
2022-10-02T09:43:57.256Z,100811.78
2022-10-02T09:46:51.211Z,100802.22
2022-10-02T09:49:35.685Z,100807.69
2022-10-02T09:52:26.640Z,100806.34
2022-10-02T09:55:17.657Z,100798.97
2022-10-02T09:58:33.495Z,100802.84
2022-10-02T10:01:15.524Z,100789.91
2022-10-02T10:03:45.893Z,100795.56
2022-10-02T10:06:35.023Z,100786.38
2022-10-02T10:10:07.496Z,100797.28
2022-10-02T10:13:02.892Z,100790.66
2022-10-02T10:16:04.442Z,100788.84
2022-10-02T10:19:04.575Z,100794.16
2022-10-02T10:22:07.755Z,100785.84
2022-10-02T10:27:59.987Z,100786.78
2022-10-02T10:30:30.480Z,100779.78
2022-10-02T10:33:09.053Z,100782.19
2022-10-02T10:38:52.423Z,100778.78
2022-10-02T10:41:46.762Z,100777.31
2022-10-02T10:44:22.881Z,100783.53
2022-10-02T10:47:02.672Z,100786.09
2022-10-02T10:49:45.493Z,100784.97
2022-10-02T10:53:04.135Z,100774.34
2022-10-02T10:56:10.819Z,100777.00
2022-10-02T10:58:44.101Z,100778.81
2022-10-02T11:01:20.114Z,100783.28
2022-10-02T11:03:53.758Z,100776.16
2022-10-02T11:06:51.912Z,100772.28
2022-10-02T11:09:45.656Z,100782.31
2022-10-02T11:12:21.702Z,100774.34
2022-10-02T11:15:04.164Z,100772.84
2022-10-02T11:17:56.802Z,100782.38
2022-10-02T11:20:30.063Z,100786.72
2022-10-02T11:23:00.177Z,100770.06
2022-10-02T11:26:06.219Z,100784.78
2022-10-02T11:28:39.415Z,100786.47
2022-10-02T11:31:32.652Z,100788.28
2022-10-02T11:34:19.911Z,100785.47
2022-10-02T11:37:03.295Z,100783.56
2022-10-02T11:39:57.370Z,100787.66
2022-10-02T11:42:46.263Z,100782.06
2022-10-02T11:45:16.601Z,100788.56
2022-10-02T11:48:02.296Z,100775.94
2022-10-02T11:50:41.957Z,100786.59
2022-10-02T11:53:20.655Z,100784.63
2022-10-02T11:56:09.077Z,100784.19
2022-10-02T11:59:04.025Z,100790.38
2022-10-02T12:01:53.091Z,100787.03
2022-10-02T12:04:26.410Z,100783.66
2022-10-02T12:07:08.897Z,100796.00
2022-10-02T12:09:56.186Z,100792.50
2022-10-02T12:12:38.647Z,100782.44
2022-10-02T12:15:35.498Z,100783.66
2022-10-02T12:18:31.856Z,100784.50
2022-10-02T12:21:45.239Z,100788.59
2022-10-02T12:24:43.700Z,100785.09
2022-10-02T12:27:36.849Z,100786.31
2022-10-02T12:30:10.244Z,100790.94
2022-10-02T12:32:57.745Z,100783.03
2022-10-02T12:35:47.249Z,100781.31
2022-10-02T12:38:39.912Z,100791.69
2022-10-02T12:41:42.549Z,100795.06
2022-10-02T12:44:29.621Z,100797.88
2022-10-02T12:47:18.511Z,100802.81
2022-10-02T12:49:46.828Z,100802.53
2022-10-02T12:52:43.247Z,100800.00
2022-10-02T12:55:48.135Z,100807.00
2022-10-02T12:58:19.690Z,100807.31
2022-10-02T13:01:05.862Z,100802.84
2022-10-02T13:03:55.371Z,100801.84
2022-10-02T13:06:46.596Z,100808.19
2022-10-02T13:09:29.807Z,100805.06
2022-10-02T13:12:24.087Z,100809.72
2022-10-02T13:15:16.636Z,100812.13
2022-10-02T13:17:46.305Z,100815.91
2022-10-02T13:20:32.123Z,100809.09
2022-10-02T13:23:15.129Z,100816.91
2022-10-02T13:26:12.001Z,100815.38
2022-10-02T13:28:45.619Z,100820.13
2022-10-02T13:31:38.993Z,100824.00
2022-10-02T13:34:21.161Z,100826.66
2022-10-02T13:37:00.373Z,100827.44
2022-10-02T13:39:52.357Z,100827.19
2022-10-02T13:42:46.116Z,100827.13
2022-10-02T13:45:31.147Z,100820.38
2022-10-02T13:48:12.363Z,100827.97
2022-10-02T13:51:00.897Z,100825.47
2022-10-02T13:53:31.362Z,100831.25
2022-10-02T13:56:17.525Z,100823.28
2022-10-02T13:59:10.787Z,100829.34
2022-10-02T14:01:50.264Z,100825.69
2022-10-02T14:04:42.085Z,100827.38
2022-10-02T14:07:49.375Z,100824.88
2022-10-02T14:10:50.552Z,100827.78
2022-10-02T14:13:36.690Z,100832.97
2022-10-02T14:16:13.251Z,100826.81
2022-10-02T14:19:02.707Z,100823.69
2022-10-02T14:21:48.702Z,100816.41
2022-10-02T14:24:53.369Z,100827.38
2022-10-02T14:27:57.579Z,100828.50
2022-10-02T14:30:49.893Z,100829.34
2022-10-02T14:33:58.200Z,100831.78
2022-10-02T14:36:43.324Z,100823.56
2022-10-02T14:39:35.837Z,100826.94
2022-10-02T14:42:06.167Z,100827.56
2022-10-02T14:44:57.028Z,100826.41
2022-10-02T14:48:05.154Z,100825.44
2022-10-02T14:50:44.629Z,100823.28
2022-10-02T14:53:50.776Z,100830.78
2022-10-02T14:56:27.882Z,100828.38
2022-10-02T14:59:10.325Z,100825.47
2022-10-02T15:01:56.891Z,100820.94
2022-10-02T15:05:04.553Z,100820.22
2022-10-02T15:07:36.469Z,100818.97
2022-10-02T15:10:16.219Z,100821.91
2022-10-02T15:13:10.058Z,100822.41
2022-10-02T15:16:14.620Z,100821.06
2022-10-02T15:19:17.235Z,100821.69
2022-10-02T15:21:57.822Z,100818.09
2022-10-02T15:24:43.683Z,100828.47
2022-10-02T15:27:29.683Z,100832.06
2022-10-02T15:30:16.907Z,100833.78
2022-10-02T15:32:53.386Z,100824.69
2022-10-02T15:35:35.985Z,100835.91
2022-10-02T15:38:38.358Z,100828.09
2022-10-02T15:41:12.137Z,100845.94
2022-10-02T15:43:42.561Z,100844.13
2022-10-02T15:46:51.354Z,100842.94
2022-10-02T15:49:39.985Z,100846.19
2022-10-02T15:52:10.248Z,100851.31
2022-10-02T15:54:56.789Z,100851.94
2022-10-02T15:57:25.987Z,100859.91
2022-10-02T16:00:23.243Z,100866.91
2022-10-02T16:02:57.989Z,100860.16
2022-10-02T16:05:57.228Z,100873.56
2022-10-02T16:08:30.723Z,100868.41
2022-10-02T16:11:27.636Z,100869.94
2022-10-02T16:14:02.149Z,100866.44
2022-10-02T16:16:41.859Z,100872.72
2022-10-02T16:19:36.773Z,100869.31
2022-10-02T16:22:12.289Z,100867.66
2022-10-02T16:24:49.175Z,100877.31
2022-10-02T16:27:28.773Z,100876.22
2022-10-02T16:30:08.393Z,100871.28
2022-10-02T16:32:57.478Z,100867.03
2022-10-02T16:35:51.292Z,100869.81
2022-10-02T16:38:40.913Z,100862.34
2022-10-02T16:41:36.989Z,100864.41
2022-10-02T16:44:29.343Z,100867.16
2022-10-02T16:47:23.093Z,100875.75
2022-10-02T16:50:14.283Z,100881.06
2022-10-02T16:52:50.564Z,100881.41
2022-10-02T16:55:27.204Z,100882.25
2022-10-02T16:58:04.218Z,100880.69
2022-10-02T17:00:38.104Z,100891.91
2022-10-02T17:03:11.120Z,100888.66
2022-10-02T17:06:10.966Z,100890.47
2022-10-02T17:08:53.902Z,100889.63
2022-10-02T17:11:28.047Z,100890.97
2022-10-02T17:14:40.751Z,100891.06
2022-10-02T17:17:17.791Z,100882.63
2022-10-02T17:19:54.116Z,100886.25
2022-10-02T17:22:42.252Z,100882.63
2022-10-02T17:25:34.518Z,100887.09
2022-10-02T17:28:04.943Z,100895.63
2022-10-02T17:31:09.347Z,100894.78
2022-10-02T17:33:45.364Z,100893.97
2022-10-02T17:36:35.813Z,100891.31
2022-10-02T17:39:14.876Z,100893.00
2022-10-02T17:41:51.667Z,100907.81
2022-10-02T17:44:56.383Z,100903.97
2022-10-02T17:47:42.526Z,100904.94
2022-10-02T17:50:27.961Z,100903.84
2022-10-02T17:53:36.827Z,100912.91
2022-10-02T17:56:40.168Z,100910.59
2022-10-02T17:59:38.074Z,100917.81
2022-10-02T18:02:23.672Z,100916.03
2022-10-02T18:05:25.115Z,100921.34
2022-10-02T18:08:01.456Z,100918.78
2022-10-02T18:10:50.273Z,100925.75
2022-10-02T18:13:17.707Z,100925.75
2022-10-02T18:16:22.258Z,100930.09
2022-10-02T18:19:09.371Z,100923.34
2022-10-02T18:21:50.633Z,100932.75
2022-10-02T18:24:34.443Z,100932.75
2022-10-02T18:27:18.512Z,100941.91
2022-10-02T18:30:14.327Z,100938.16
2022-10-02T18:33:06.343Z,100936.13
2022-10-02T18:38:24.212Z,100943.22
2022-10-02T18:41:06.554Z,100946.97
2022-10-02T18:44:21.710Z,100947.53
2022-10-02T18:47:16.681Z,100949.94
2022-10-02T18:49:59.273Z,100954.91
2022-10-02T18:52:59.038Z,100952.84
2022-10-02T18:55:34.699Z,100951.50
2022-10-02T18:58:27.457Z,100960.50
2022-10-02T19:01:03.274Z,100954.63
2022-10-02T19:03:39.619Z,100958.44
2022-10-02T19:06:40.464Z,100951.56
2022-10-02T19:09:08.725Z,100953.69
2022-10-02T19:11:58.113Z,100947.84
2022-10-02T19:14:25.804Z,100951.34
2022-10-02T19:16:58.902Z,100953.63
2022-10-02T19:19:28.608Z,100951.81
2022-10-02T19:22:02.669Z,100950.97
2022-10-02T19:24:37.306Z,100969.53
2022-10-02T19:27:08.431Z,100955.44
2022-10-02T19:29:46.500Z,100959.91
2022-10-02T19:32:41.391Z,100962.56
2022-10-02T19:35:20.779Z,100967.63
2022-10-02T19:37:51.416Z,100961.59
2022-10-02T19:40:26.174Z,100959.06
2022-10-02T19:43:04.518Z,100961.59
2022-10-02T19:45:35.899Z,100957.75
2022-10-02T19:48:08.152Z,100960.34
2022-10-02T19:50:49.073Z,100963.13
2022-10-02T19:53:23.733Z,100960.13
2022-10-02T19:55:56.070Z,100962.75
2022-10-02T19:58:41.939Z,100963.47
2022-10-02T20:01:18.789Z,100965.16
2022-10-02T20:03:51.578Z,100960.50
2022-10-02T20:06:22.900Z,100965.09
2022-10-02T20:09:17.122Z,100964.69
2022-10-02T20:11:53.272Z,100962.59
2022-10-02T20:14:28.165Z,100956.09
2022-10-02T20:17:11.134Z,100959.13
2022-10-02T20:19:45.360Z,100965.72
2022-10-02T20:22:12.794Z,100955.31
2022-10-02T20:24:59.628Z,100961.47
2022-10-02T20:27:59.557Z,100955.97
2022-10-02T20:30:32.582Z,100970.09
2022-10-02T20:33:09.989Z,100968.63
2022-10-02T20:35:45.243Z,100963.81
2022-10-02T20:38:28.084Z,100962.13
2022-10-02T20:40:59.149Z,100967.91
2022-10-02T20:43:36.828Z,100967.66
2022-10-02T20:46:28.497Z,100965.75
2022-10-02T20:49:14.940Z,100967.66
2022-10-02T20:51:57.644Z,100968.13
2022-10-02T20:54:55.446Z,100970.97
2022-10-02T20:57:49.621Z,100966.50
2022-10-02T21:00:25.157Z,100968.53
2022-10-02T21:03:01.566Z,100966.13
2022-10-02T21:05:50.248Z,100971.63
2022-10-02T21:08:47.822Z,100973.56
2022-10-02T21:11:37.174Z,100976.09
2022-10-02T21:14:33.177Z,100972.72
2022-10-02T21:17:10.894Z,100973.78
2022-10-02T21:20:09.346Z,100975.41
2022-10-02T21:22:58.397Z,100980.94
2022-10-02T21:25:46.032Z,100982.63
2022-10-02T21:28:28.728Z,100986.44
2022-10-02T21:31:17.142Z,100985.59
2022-10-02T21:34:03.474Z,100982.81
2022-10-02T21:36:46.949Z,100983.03
2022-10-02T21:39:30.916Z,100988.88
2022-10-02T21:41:58.363Z,100985.59
2022-10-02T21:44:45.778Z,100986.44
2022-10-02T21:47:56.718Z,100984.09
2022-10-02T21:50:43.026Z,100991.31
2022-10-02T21:53:19.189Z,100988.03
2022-10-02T21:56:17.484Z,100995.22
2022-10-02T21:58:50.834Z,100992.56
2022-10-02T22:01:30.170Z,100989.50
2022-10-02T22:04:20.012Z,100984.84
2022-10-02T22:06:59.584Z,100994.50
2022-10-02T22:09:32.816Z,100991.34
2022-10-02T22:12:34.158Z,100990.59
2022-10-02T22:15:43.011Z,100992.28
2022-10-02T22:18:37.745Z,100996.84
2022-10-02T22:21:26.697Z,100988.69
2022-10-02T22:23:59.951Z,100988.16
2022-10-02T22:27:01.597Z,100990.59
2022-10-02T22:29:51.708Z,100990.72
2022-10-02T22:32:52.980Z,100985.00
2022-10-02T22:35:26.438Z,100984.16
2022-10-02T22:38:09.265Z,100992.09
2022-10-02T22:40:51.478Z,100984.16
2022-10-02T22:43:31.835Z,100998.09
2022-10-02T22:46:07.764Z,100997.69
2022-10-02T22:48:44.311Z,100995.88
2022-10-02T22:51:22.802Z,100999.91
2022-10-02T22:54:16.376Z,100998.31
2022-10-02T22:57:10.309Z,101000.44
2022-10-02T22:59:44.733Z,100998.66
2022-10-02T23:02:24.710Z,100998.53
2022-10-02T23:05:05.745Z,100997.69
2022-10-02T23:07:45.304Z,100996.09
2022-10-02T23:10:20.582Z,101006.06
2022-10-02T23:13:04.937Z,100998.09
2022-10-02T23:15:47.030Z,100999.19
2022-10-02T23:18:31.873Z,100996.63
2022-10-02T23:21:39.978Z,101004.97
2022-10-02T23:24:13.375Z,101003.09
2022-10-02T23:26:45.961Z,101008.19
2022-10-02T23:29:36.196Z,101000.44
2022-10-02T23:32:12.102Z,100999.38
2022-10-02T23:34:54.198Z,100998.00
2022-10-02T23:37:27.858Z,101000.53
2022-10-02T23:40:16.998Z,100990.69
2022-10-02T23:43:06.136Z,100992.38
2022-10-02T23:45:41.330Z,100991.41
2022-10-02T23:48:14.110Z,100993.44
2022-10-02T23:50:57.250Z,100991.63
2022-10-02T23:53:52.603Z,100998.09
2022-10-02T23:56:20.244Z,100997.59
2022-10-02T23:59:13.047Z,100998.22
